Time;durP1;ratioP1;P1;durP2;ratioP2;P2;SDS_P1;SDS_P2;PMS_P1;PMS_P2;Temp;Humidity;BMP_temperature;BMP_pressure;BME280_temperature;BME280_humidity;BME280_pressure;Samples;Min_cycle;Max_cycle;Signal;HPM_P1;HPM_P2
2023/01/31 00:00:12;;;;;;;17.40;3.00;;;3.80;99.90;;;;;;2045285;28;20057;-68
2023/01/31 00:01:15;;;;;;;18.52;3.30;;;3.80;99.90;;;;;;2044871;29;20035;-69
2023/01/31 00:02:15;;;;;;;18.17;3.47;;;3.80;99.90;;;;;;2034828;29;20040;-70
2023/01/31 00:03:16;;;;;;;20.67;3.30;;;3.80;99.90;;;;;;2034749;29;20194;-69
2023/01/31 00:04:17;;;;;;;16.40;3.53;;;3.80;99.90;;;;;;2042437;28;20430;-70
2023/01/31 00:05:18;;;;;;;16.80;3.50;;;3.80;99.90;;;;;;2042548;28;20043;-70
2023/01/31 00:06:28;;;;;;;19.67;3.67;;;3.80;99.90;;;;;;2043308;29;20050;-71
2023/01/31 00:07:29;;;;;;;17.20;3.65;;;3.70;99.90;;;;;;2043344;28;20558;-69
2023/01/31 00:08:29;;;;;;;18.67;3.60;;;3.70;99.90;;;;;;2035277;29;20043;-70
2023/01/31 00:09:30;;;;;;;19.63;3.53;;;3.70;99.90;;;;;;2036730;29;20312;-69
2023/01/31 00:10:30;;;;;;;16.92;3.42;;;3.70;99.90;;;;;;2043221;28;20380;-69
2023/01/31 00:11:32;;;;;;;17.67;3.45;;;3.70;99.90;;;;;;2038543;28;20047;-70
2023/01/31 00:12:33;;;;;;;24.77;3.88;;;3.70;99.90;;;;;;2041472;28;20149;-69
2023/01/31 00:13:33;;;;;;;19.08;3.97;;;3.70;99.90;;;;;;2036530;29;20020;-68
2023/01/31 00:14:34;;;;;;;22.02;3.85;;;3.70;99.90;;;;;;2034500;29;20040;-69
2023/01/31 00:15:34;;;;;;;21.73;3.80;;;3.70;99.90;;;;;;2033538;29;20127;-68
2023/01/31 00:16:35;;;;;;;20.25;4.07;;;3.70;99.90;;;;;;2032937;29;20031;-69
2023/01/31 00:17:36;;;;;;;23.10;4.00;;;3.70;99.90;;;;;;2043279;29;20463;-68
2023/01/31 00:18:37;;;;;;;21.00;3.60;;;3.70;99.90;;;;;;2034565;29;20080;-68
2023/01/31 00:19:38;;;;;;;17.92;3.75;;;3.70;99.90;;;;;;2026805;29;20148;-68
2023/01/31 00:20:38;;;;;;;21.38;3.80;;;3.70;99.90;;;;;;2036444;29;20522;-69
2023/01/31 00:21:42;;;;;;;16.58;3.55;;;3.80;99.90;;;;;;2043365;29;20027;-69
2023/01/31 00:22:43;;;;;;;17.75;3.45;;;3.70;99.90;;;;;;2046000;28;20043;-69
2023/01/31 00:23:45;;;;;;;23.75;4.07;;;3.70;99.90;;;;;;2047078;28;20553;-69
2023/01/31 00:24:45;;;;;;;19.52;4.00;;;3.80;99.90;;;;;;2044124;28;20039;-68
2023/01/31 00:25:46;;;;;;;19.08;3.85;;;3.80;99.90;;;;;;2042695;29;20118;-68
2023/01/31 00:26:47;;;;;;;21.63;3.88;;;3.80;99.90;;;;;;2044956;28;20046;-68
2023/01/31 00:27:48;;;;;;;21.35;4.15;;;3.80;99.90;;;;;;2034251;29;20035;-70
2023/01/31 00:28:51;;;;;;;18.65;3.47;;;3.80;99.90;;;;;;2034702;29;20036;-70
2023/01/31 00:29:52;;;;;;;22.45;3.70;;;3.80;99.90;;;;;;2044846;28;20062;-69
2023/01/31 00:30:53;;;;;;;13.05;3.53;;;3.90;99.90;;;;;;2044920;29;20098;-69
2023/01/31 00:31:56;;;;;;;21.40;3.40;;;3.90;99.90;;;;;;2043090;29;20082;-68
2023/01/31 00:32:57;;;;;;;21.85;4.07;;;3.90;99.90;;;;;;2042784;28;20027;-71
2023/01/31 00:33:58;;;;;;;22.63;3.97;;;3.90;99.90;;;;;;2041204;28;20275;-69
2023/01/31 00:34:59;;;;;;;17.05;3.65;;;3.90;99.90;;;;;;2041187;28;20671;-69
2023/01/31 00:36:08;;;;;;;16.55;3.40;;;4.00;99.90;;;;;;2036445;29;20066;-69
2023/01/31 00:37:08;;;;;;;17.15;3.58;;;4.00;99.90;;;;;;2033066;29;20043;-69
2023/01/31 00:38:09;;;;;;;21.08;3.55;;;4.00;99.90;;;;;;2043050;28;20023;-69
2023/01/31 00:39:09;;;;;;;16.40;3.78;;;4.00;99.90;;;;;;2043029;28;20491;-69
2023/01/31 00:40:10;;;;;;;20.98;4.13;;;4.00;99.90;;;;;;2043015;29;20027;-69
2023/01/31 00:41:11;;;;;;;15.80;3.70;;;4.00;99.90;;;;;;2042243;29;20222;-67
2023/01/31 00:42:13;;;;;;;20.90;3.63;;;4.10;99.90;;;;;;2040681;29;20095;-68
2023/01/31 00:43:15;;;;;;;18.92;3.50;;;4.10;99.90;;;;;;2044989;29;20050;-70
2023/01/31 00:44:15;;;;;;;26.67;3.85;;;4.10;99.90;;;;;;2034294;29;20229;-68
2023/01/31 00:45:16;;;;;;;15.07;3.20;;;4.10;99.90;;;;;;2030469;29;20043;-68
2023/01/31 00:46:19;;;;;;;20.42;3.90;;;4.10;99.90;;;;;;2042527;29;20023;-69
2023/01/31 00:47:19;;;;;;;16.38;3.70;;;4.10;99.90;;;;;;2032569;29;20322;-68
2023/01/31 00:48:20;;;;;;;21.73;3.75;;;4.10;99.90;;;;;;2034992;29;20039;-69
2023/01/31 00:49:21;;;;;;;21.35;3.95;;;4.10;99.90;;;;;;2042107;29;20114;-69
2023/01/31 00:50:21;;;;;;;20.58;3.05;;;4.10;99.90;;;;;;2042588;28;20520;-69
2023/01/31 00:51:24;;;;;;;17.90;3.80;;;4.10;99.90;;;;;;2035486;29;20031;-69
2023/01/31 00:52:24;;;;;;;19.65;4.45;;;4.10;99.90;;;;;;2032537;29;20447;-68
2023/01/31 00:53:25;;;;;;;18.58;3.25;;;4.10;99.90;;;;;;2042250;28;20064;-68
2023/01/31 00:54:26;;;;;;;16.42;3.30;;;4.00;99.90;;;;;;2042758;29;20110;-68
2023/01/31 00:55:26;;;;;;;16.08;3.58;;;4.00;99.90;;;;;;2042694;29;20031;-68
2023/01/31 00:56:27;;;;;;;17.45;3.20;;;4.00;99.90;;;;;;2041672;29;20039;-69
2023/01/31 00:57:28;;;;;;;20.98;3.67;;;4.00;99.90;;;;;;2042779;28;20430;-68
2023/01/31 00:58:28;;;;;;;15.73;3.00;;;4.00;99.90;;;;;;2042771;28;20106;-69
2023/01/31 00:59:30;;;;;;;16.52;3.28;;;4.00;99.90;;;;;;2043041;29;20031;-68
2023/01/31 01:00:32;;;;;;;14.65;2.97;;;4.00;99.90;;;;;;2042523;28;20109;-69
2023/01/31 01:01:34;;;;;;;19.33;3.15;;;4.00;99.90;;;;;;2028142;29;20126;-69
2023/01/31 01:02:35;;;;;;;15.25;2.78;;;3.90;99.90;;;;;;2026702;29;20619;-69
2023/01/31 01:03:37;;;;;;;12.32;2.90;;;3.90;99.90;;;;;;2032799;29;20134;-69
2023/01/31 01:04:37;;;;;;;17.13;2.83;;;3.90;99.90;;;;;;2031136;29;20316;-70
2023/01/31 01:05:38;;;;;;;11.98;2.50;;;3.90;99.90;;;;;;2044190;29;20039;-69
2023/01/31 01:06:40;;;;;;;10.65;2.50;;;3.90;99.90;;;;;;2042804;28;20032;-70
2023/01/31 01:07:41;;;;;;;12.07;2.40;;;3.90;99.90;;;;;;2039621;29;20054;-70
2023/01/31 01:08:42;;;;;;;12.32;2.67;;;3.90;99.90;;;;;;2039663;28;20040;-70
2023/01/31 01:09:43;;;;;;;10.10;2.40;;;3.90;99.90;;;;;;2030904;29;20031;-70
2023/01/31 01:10:43;;;;;;;8.18;2.08;;;3.90;99.90;;;;;;2034221;29;20439;-69
2023/01/31 01:11:44;;;;;;;10.55;2.40;;;3.90;99.90;;;;;;2039719;29;20083;-68
2023/01/31 01:12:45;;;;;;;9.93;2.00;;;3.80;99.90;;;;;;2040738;29;20039;-68
2023/01/31 01:13:48;;;;;;;7.00;1.88;;;3.80;99.90;;;;;;2041817;29;20027;-68
2023/01/31 01:14:49;;;;;;;9.00;2.03;;;3.80;99.90;;;;;;2043992;29;20035;-68
2023/01/31 01:15:49;;;;;;;11.52;1.95;;;3.80;99.90;;;;;;2034102;29;20459;-68
2023/01/31 01:16:52;;;;;;;9.77;2.28;;;3.70;99.90;;;;;;2026082;29;20036;-68
2023/01/31 01:17:54;;;;;;;7.63;1.88;;;3.70;99.90;;;;;;2034059;29;20303;-68
2023/01/31 01:18:55;;;;;;;9.63;2.17;;;3.70;99.90;;;;;;2037593;29;20083;-69
2023/01/31 01:19:55;;;;;;;8.75;1.98;;;3.60;99.90;;;;;;2042810;29;20445;-68
2023/01/31 01:20:58;;;;;;;8.68;1.92;;;3.60;99.90;;;;;;2028023;29;20043;-69
2023/01/31 01:21:59;;;;;;;6.18;1.80;;;3.60;99.90;;;;;;2026635;29;20137;-69
2023/01/31 01:23:00;;;;;;;12.45;2.17;;;3.60;99.90;;;;;;2033859;29;20080;-70
2023/01/31 01:24:01;;;;;;;10.63;1.95;;;3.60;99.90;;;;;;2039262;29;20066;-70
2023/01/31 01:25:02;;;;;;;8.05;1.75;;;3.60;99.90;;;;;;2043994;29;20034;-68
2023/01/31 01:26:04;;;;;;;8.15;2.00;;;3.70;99.90;;;;;;2035173;29;20036;-69
2023/01/31 01:27:04;;;;;;;7.07;1.80;;;3.70;99.90;;;;;;2034440;29;20514;-69
2023/01/31 01:28:05;;;;;;;9.52;1.85;;;3.60;99.90;;;;;;2042520;28;20024;-69
2023/01/31 01:29:05;;;;;;;8.35;1.92;;;3.60;99.90;;;;;;2042483;29;20031;-69
2023/01/31 01:30:07;;;;;;;5.65;1.80;;;3.60;99.90;;;;;;2023006;29;20062;-71
2023/01/31 01:31:10;;;;;;;10.93;2.10;;;3.60;99.90;;;;;;2020450;29;20527;-69
2023/01/31 01:32:14;;;;;;;8.43;2.03;;;3.60;99.90;;;;;;2018843;29;20032;-69
2023/01/31 01:33:15;;;;;;;6.57;1.67;;;3.60;99.90;;;;;;2018513;29;20032;-69
2023/01/31 01:34:16;;;;;;;10.48;2.40;;;3.60;99.90;;;;;;2028609;29;20031;-69
2023/01/31 01:35:16;;;;;;;10.57;2.17;;;3.60;99.90;;;;;;2035803;29;20036;-69
2023/01/31 01:36:20;;;;;;;11.90;2.30;;;3.60;99.90;;;;;;2037985;29;20065;-69
2023/01/31 01:37:21;;;;;;;11.18;2.25;;;3.60;99.90;;;;;;2040512;28;20369;-69
2023/01/31 01:38:22;;;;;;;8.07;2.30;;;3.50;99.90;;;;;;2042475;29;20184;-69
2023/01/31 01:39:22;;;;;;;11.35;2.55;;;3.50;99.90;;;;;;2027008;29;20036;-70
2023/01/31 01:40:23;;;;;;;9.60;2.40;;;3.50;99.90;;;;;;2027388;29;20072;-69
2023/01/31 01:41:24;;;;;;;9.00;2.20;;;3.40;99.90;;;;;;2042078;29;20027;-70
2023/01/31 01:42:26;;;;;;;11.38;2.50;;;3.40;99.90;;;;;;2042110;29;20043;-69
2023/01/31 01:43:55;;;;;;;11.48;2.45;;;3.40;99.90;;;;;;2042163;28;20082;-69
2023/01/31 01:45:00;;;;;;;11.35;2.65;;;3.30;99.90;;;;;;2035255;28;20580;-69
2023/01/31 01:46:01;;;;;;;12.50;2.50;;;3.30;99.90;;;;;;2044092;29;20051;-70
2023/01/31 01:47:01;;;;;;;9.60;2.50;;;3.20;99.90;;;;;;2039847;28;20031;-69
2023/01/31 01:48:07;;;;;;;12.43;2.67;;;3.20;99.90;;;;;;2040338;28;20033;-69
2023/01/31 01:49:46;;;;;;;12.85;3.00;;;3.20;99.90;;;;;;2042756;28;20089;-69
2023/01/31 01:50:48;;;;;;;12.90;2.83;;;3.10;99.90;;;;;;2017754;29;20055;-69
2023/01/31 01:51:50;;;;;;;15.68;2.78;;;3.10;99.90;;;;;;2036584;28;20046;-69
2023/01/31 01:53:01;;;;;;;11.00;2.90;;;3.10;99.90;;;;;;2042463;28;20061;-70
2023/01/31 01:54:05;;;;;;;17.85;3.08;;;3.10;99.90;;;;;;2033831;29;20419;-69
2023/01/31 01:55:29;;;;;;;16.52;2.97;;;3.10;99.90;;;;;;2034740;29;20107;-69
2023/01/31 01:56:36;;;;;;;16.10;3.33;;;3.20;99.90;;;;;;2034607;29;20038;-69
2023/01/31 01:57:40;;;;;;;15.70;3.13;;;3.20;99.90;;;;;;2037518;29;20051;-71
2023/01/31 01:58:51;;;;;;;13.35;3.13;;;3.20;99.90;;;;;;2039228;29;20039;-70
2023/01/31 01:59:55;;;;;;;;;;;3.20;99.90;;;;;;2040634;29;20402;-70
2023/01/31 02:00:59;;;;;;;16.77;2.78;;;3.20;99.90;;;;;;2036155;29;19922;-69
2023/01/31 02:02:00;;;;;;;14.00;3.13;;;3.30;99.90;;;;;;2022900;29;20089;-69
2023/01/31 02:03:05;;;;;;;18.30;3.30;;;3.30;99.90;;;;;;2032663;29;20027;-69
2023/01/31 02:04:12;;;;;;;16.80;3.50;;;3.30;99.90;;;;;;2041460;28;20035;-70
2023/01/31 02:05:18;;;;;;;17.73;3.45;;;3.40;99.90;;;;;;2041749;28;20113;-70
2023/01/31 02:06:20;;;;;;;15.18;3.28;;;3.40;99.90;;;;;;2034908;29;20532;-70
2023/01/31 02:07:21;;;;;;;13.82;3.35;;;3.40;99.90;;;;;;2033884;29;20020;-70
2023/01/31 02:08:24;;;;;;;17.77;3.40;;;3.40;99.90;;;;;;2043818;29;20118;-70
2023/01/31 02:09:49;;;;;;;14.27;2.95;;;3.50;99.90;;;;;;2035688;29;20043;-70
2023/01/31 02:11:02;;;;;;;18.45;3.30;;;3.40;99.90;;;;;;2034150;29;20450;-69
2023/01/31 02:12:02;;;;;;;17.35;3.55;;;3.40;99.90;;;;;;2040926;28;20027;-69
2023/01/31 02:13:03;;;;;;;17.58;3.40;;;3.40;99.90;;;;;;2039323;29;20050;-81
2023/01/31 02:14:07;;;;;;;16.05;3.40;;;3.50;99.90;;;;;;2044006;28;20075;-80
2023/01/31 02:15:09;;;;;;;16.67;3.55;;;3.50;99.90;;;;;;2039807;29;20110;-77
2023/01/31 02:16:09;;;;;;;16.95;3.40;;;3.50;99.90;;;;;;2034212;29;20034;-72
2023/01/31 02:17:13;;;;;;;15.48;3.50;;;3.50;99.90;;;;;;2025628;29;20524;-70
2023/01/31 02:18:15;;;;;;;14.60;3.05;;;3.50;99.90;;;;;;2033931;29;20535;-71
2023/01/31 02:19:32;;;;;;;16.40;3.70;;;3.50;99.90;;;;;;2033627;29;20067;-71
2023/01/31 02:20:59;;;;;;;17.08;3.28;;;3.60;99.90;;;;;;2035804;29;20441;-71
2023/01/31 02:22:12;;;;;;;14.13;3.00;;;3.50;99.90;;;;;;2039412;28;20023;-71
2023/01/31 02:23:57;;;;;;;21.95;4.05;;;3.60;99.90;;;;;;2039923;28;20033;-72
2023/01/31 02:25:48;;;;;;;15.65;3.50;;;3.60;99.90;;;;;;2011494;29;20123;-71
2023/01/31 02:27:34;;;;;;;17.30;3.10;;;3.60;99.90;;;;;;2000258;29;20118;-72
2023/01/31 02:28:53;;;;;;;21.33;3.55;;;3.60;99.90;;;;;;2032575;29;20078;-72
2023/01/31 02:30:18;;;;;;;18.08;3.70;;;3.60;99.90;;;;;;2033912;29;20593;-72
2023/01/31 02:31:35;;;;;;;21.30;3.20;;;3.60;99.90;;;;;;2039540;29;20506;-71
2023/01/31 02:32:56;;;;;;;16.83;3.67;;;3.60;99.90;;;;;;2028783;29;20507;-71
2023/01/31 02:34:09;;;;;;;18.42;3.28;;;3.60;99.90;;;;;;2032139;29;20034;-72
2023/01/31 02:35:16;;;;;;;22.65;3.38;;;3.70;99.90;;;;;;2041472;28;20065;-70
2023/01/31 02:36:32;;;;;;;20.00;3.55;;;3.70;99.90;;;;;;2033421;29;20099;-70
2023/01/31 02:38:11;;;;;;;18.02;3.80;;;3.70;99.90;;;;;;2029636;29;20042;-71
2023/01/31 02:39:26;;;;;;;15.93;3.22;;;3.70;99.90;;;;;;2032659;29;20546;-70
2023/01/31 02:41:02;;;;;;;22.65;3.67;;;3.70;99.90;;;;;;2035461;29;20490;-70
2023/01/31 02:42:32;;;;;;;18.70;3.40;;;3.70;99.90;;;;;;2041365;28;20031;-70
2023/01/31 02:45:29;;;;;;;21.15;3.70;;;3.70;99.90;;;;;;2028958;29;20058;-69
2023/01/31 02:46:58;;;;;;;21.15;3.58;;;3.70;99.90;;;;;;2035771;29;20134;-71
2023/01/31 02:48:18;;;;;;;18.20;3.88;;;3.70;99.90;;;;;;2039781;29;20038;-70
2023/01/31 02:49:38;;;;;;;20.42;3.35;;;3.70;99.90;;;;;;2032001;29;20639;-71
2023/01/31 02:50:55;;;;;;;19.60;3.70;;;3.70;99.90;;;;;;2034144;29;20043;-71
2023/01/31 02:52:15;;;;;;;19.63;3.70;;;3.70;99.90;;;;;;2030418;29;20107;-71
2023/01/31 02:53:25;;;;;;;19.13;3.70;;;3.70;99.90;;;;;;2029738;29;20036;-71
2023/01/31 02:56:13;;;;;;;;;;;3.70;99.90;;;;;;2019638;29;20277;-71
2023/01/31 02:56:18;;;;;;;23.77;3.40;;;3.70;99.90;;;;;;2031164;29;19967;-71
2023/01/31 02:57:20;;;;;;;23.15;3.50;;;3.70;99.90;;;;;;2030666;29;20515;-70
2023/01/31 02:58:23;;;;;;;22.15;3.35;;;3.70;99.90;;;;;;2035718;29;20039;-71
2023/01/31 02:59:27;;;;;;;19.45;3.78;;;3.70;99.90;;;;;;2041498;28;20035;-69
2023/01/31 03:00:33;;;;;;;19.30;3.45;;;3.70;99.90;;;;;;2033661;29;20039;-70
2023/01/31 03:01:40;;;;;;;22.10;3.97;;;3.80;99.90;;;;;;2033933;29;20040;-70
2023/01/31 03:02:41;;;;;;;22.58;3.70;;;3.80;99.90;;;;;;2033586;29;20063;-70
2023/01/31 03:03:41;;;;;;;26.08;3.70;;;3.80;99.90;;;;;;2025581;29;20087;-71
2023/01/31 03:04:43;;;;;;;16.85;3.75;;;3.80;99.90;;;;;;2033469;29;20028;-70
2023/01/31 03:05:43;;;;;;;19.45;3.45;;;3.80;99.90;;;;;;2035090;29;20039;-70
2023/01/31 03:06:53;;;;;;;18.05;3.50;;;3.80;99.90;;;;;;2033347;29;20035;-69
2023/01/31 03:08:03;;;;;;;20.63;3.58;;;3.80;99.90;;;;;;2041041;29;20051;-71
2023/01/31 03:09:21;;;;;;;15.40;3.53;;;3.80;99.90;;;;;;2038188;29;20431;-71
2023/01/31 03:10:59;;;;;;;21.77;3.30;;;3.80;99.90;;;;;;2042950;29;20050;-71
2023/01/31 03:12:32;;;;;;;18.13;3.53;;;3.80;99.90;;;;;;2046844;28;20031;-71
2023/01/31 03:13:49;;;;;;;17.83;3.42;;;3.80;99.90;;;;;;2040403;29;20102;-70
2023/01/31 03:15:00;;;;;;;18.23;3.33;;;3.80;99.90;;;;;;2038989;28;20123;-70
2023/01/31 03:18:07;;;;;;;20.88;3.70;;;3.80;99.90;;;;;;2030660;29;20046;-71
2023/01/31 03:19:19;;;;;;;19.88;3.47;;;3.80;99.90;;;;;;2039001;29;20039;-70
2023/01/31 03:20:28;;;;;;;18.77;3.63;;;3.80;99.90;;;;;;2042634;28;20053;-71
2023/01/31 03:21:35;;;;;;;20.10;3.58;;;3.80;99.90;;;;;;2043246;28;20038;-70
2023/01/31 03:22:50;;;;;;;19.65;3.72;;;3.80;99.90;;;;;;2043393;29;20039;-70
2023/01/31 03:23:54;;;;;;;20.05;3.40;;;3.80;99.90;;;;;;2034930;29;20110;-72
2023/01/31 03:24:56;;;;;;;17.27;3.17;;;3.80;99.90;;;;;;2035159;29;20035;-70
2023/01/31 03:26:01;;;;;;;17.52;3.65;;;3.70;99.90;;;;;;2042907;28;20027;-70
2023/01/31 03:27:03;;;;;;;14.20;3.17;;;3.70;99.90;;;;;;2041374;29;20075;-69
2023/01/31 03:28:09;;;;;;;23.08;3.65;;;3.70;99.90;;;;;;2039318;29;20454;-71
2023/01/31 03:29:14;;;;;;;16.88;3.22;;;3.70;99.90;;;;;;2033020;29;20032;-71
2023/01/31 03:30:19;;;;;;;20.40;3.20;;;3.70;99.90;;;;;;2036120;28;20084;-71
2023/01/31 03:31:28;;;;;;;17.63;3.47;;;3.70;99.90;;;;;;2042630;28;20113;-72
2023/01/31 03:32:38;;;;;;;20.75;3.67;;;3.70;99.90;;;;;;2043443;29;20525;-71
2023/01/31 03:33:41;;;;;;;;;;;3.60;99.90;;;;;;2039534;29;20083;-71
2023/01/31 03:34:41;;;;;;;14.27;3.05;;;3.60;99.90;;;;;;2037120;29;20353;-71
2023/01/31 03:35:51;;;;;;;16.88;3.30;;;3.60;99.90;;;;;;2035223;29;20495;-71
2023/01/31 03:37:05;;;;;;;16.65;3.50;;;3.60;99.90;;;;;;2042440;29;20477;-71
2023/01/31 03:38:26;;;;;;;19.85;3.58;;;3.60;99.90;;;;;;2042700;28;20519;-71
2023/01/31 03:39:51;;;;;;;17.45;3.25;;;3.60;99.90;;;;;;2033108;29;20066;-72
2023/01/31 03:41:00;;;;;;;17.70;3.50;;;3.60;99.90;;;;;;2037806;29;20502;-70
2023/01/31 03:42:08;;;;;;;20.40;3.70;;;3.60;99.90;;;;;;2033730;29;20121;-70
2023/01/31 03:43:14;;;;;;;20.92;3.67;;;3.60;99.90;;;;;;2034755;29;20151;-71
2023/01/31 03:44:42;;;;;;;16.50;3.42;;;3.60;99.90;;;;;;2034822;29;20850;-71
2023/01/31 03:45:50;;;;;;;18.05;3.22;;;3.60;99.90;;;;;;2037749;29;20039;-71
2023/01/31 03:46:58;;;;;;;16.00;2.90;;;3.60;99.90;;;;;;2044702;28;20294;-70
2023/01/31 03:48:02;;;;;;;19.42;3.50;;;3.60;99.90;;;;;;2024949;29;20032;-70
2023/01/31 03:49:07;;;;;;;12.13;3.03;;;3.60;99.90;;;;;;2016919;29;20059;-71
2023/01/31 03:50:12;;;;;;;17.73;3.22;;;3.50;99.90;;;;;;2027857;29;20044;-69
2023/01/31 03:51:18;;;;;;;17.95;2.97;;;3.50;99.90;;;;;;2038028;29;20113;-70
2023/01/31 03:52:25;;;;;;;14.40;3.17;;;3.50;99.90;;;;;;2035927;29;20071;-70
2023/01/31 03:53:28;;;;;;;15.43;3.40;;;3.50;99.90;;;;;;2043624;29;20042;-78
2023/01/31 03:54:34;;;;;;;16.17;3.40;;;3.40;99.90;;;;;;2036542;29;20107;-80
2023/01/31 03:56:03;;;;;;;16.88;3.50;;;3.40;99.90;;;;;;2037249;29;20114;-80
2023/01/31 03:57:21;;;;;;;15.98;3.00;;;3.30;99.90;;;;;;2046038;28;20035;-81
2023/01/31 03:58:26;;;;;;;14.68;3.40;;;3.20;99.90;;;;;;2041560;29;20035;-81
2023/01/31 03:59:34;;;;;;;17.00;3.70;;;3.20;99.90;;;;;;2036235;29;20035;-81
2023/01/31 04:00:37;;;;;;;15.80;3.42;;;3.20;99.90;;;;;;2028424;29;20060;-80
2023/01/31 04:01:43;;;;;;;19.73;3.55;;;3.10;99.90;;;;;;2035821;28;20055;-81
2023/01/31 04:02:47;;;;;;;16.90;3.63;;;3.10;99.90;;;;;;2043745;29;20058;-82
2023/01/31 04:03:56;;;;;;;16.98;3.53;;;3.10;99.90;;;;;;2045668;29;20023;-80
2023/01/31 04:05:20;;;;;;;12.88;3.47;;;3.10;99.90;;;;;;2037314;29;20086;-81
2023/01/31 04:06:24;;;;;;;16.88;3.60;;;3.10;99.90;;;;;;2036702;29;20073;-80
2023/01/31 04:07:25;;;;;;;15.80;3.70;;;3.00;99.90;;;;;;2031997;29;20036;-82
2023/01/31 04:08:26;;;;;;;13.45;3.63;;;3.00;99.90;;;;;;2037504;29;20039;-80
2023/01/31 04:09:33;;;;;;;15.07;3.60;;;3.00;99.90;;;;;;2034607;29;20130;-81
2023/01/31 04:10:34;;;;;;;17.05;3.92;;;3.00;99.90;;;;;;2035552;29;20208;-80
2023/01/31 04:11:37;;;;;;;13.50;2.90;;;3.00;99.90;;;;;;2043323;28;22857;-79
2023/01/31 04:12:39;;;;;;;16.58;3.60;;;3.00;99.90;;;;;;2044875;29;20058;-80
2023/01/31 04:13:41;;;;;;;13.48;3.38;;;3.00;99.90;;;;;;2044166;29;20110;-82
2023/01/31 04:14:42;;;;;;;12.80;3.25;;;3.00;99.90;;;;;;2042717;28;20028;-79
2023/01/31 04:15:43;;;;;;;13.85;3.33;;;3.00;99.90;;;;;;2043919;28;20039;-80
2023/01/31 04:16:43;;;;;;;13.88;3.42;;;3.00;99.90;;;;;;2045847;29;20526;-81
2023/01/31 04:17:44;;;;;;;12.98;3.22;;;3.00;99.90;;;;;;2043781;28;20046;-79
2023/01/31 04:18:45;;;;;;;15.18;3.53;;;3.00;99.90;;;;;;2035799;29;20095;-78
2023/01/31 04:19:45;;;;;;;15.60;3.50;;;3.00;99.90;;;;;;2035631;29;20052;-79
2023/01/31 04:20:46;;;;;;;12.60;3.40;;;3.00;99.90;;;;;;2037654;29;20080;-79
2023/01/31 04:21:46;;;;;;;15.32;3.30;;;3.00;99.90;;;;;;2030047;29;20040;-80
2023/01/31 04:22:47;;;;;;;12.43;3.55;;;3.00;99.90;;;;;;2037032;29;20043;-80
2023/01/31 04:23:47;;;;;;;11.45;3.33;;;3.00;99.90;;;;;;2046390;29;20035;-81
2023/01/31 04:24:48;;;;;;;16.90;3.70;;;3.00;99.90;;;;;;2044856;29;20031;-81
2023/01/31 04:25:48;;;;;;;19.88;3.72;;;3.10;99.90;;;;;;2036174;29;20040;-80
2023/01/31 04:26:49;;;;;;;13.77;3.42;;;3.10;99.90;;;;;;2036901;29;20426;-79
2023/01/31 04:27:50;;;;;;;14.77;3.67;;;3.10;99.90;;;;;;2042171;29;20303;-79
2023/01/31 04:28:51;;;;;;;19.17;4.00;;;3.10;99.90;;;;;;2039568;29;20031;-80
2023/01/31 04:29:51;;;;;;;15.98;4.05;;;3.00;99.90;;;;;;2046500;28;20035;-77
2023/01/31 04:30:53;;;;;;;16.33;3.83;;;3.00;99.90;;;;;;2045150;28;20114;-79
2023/01/31 04:31:53;;;;;;;12.23;3.10;;;3.00;99.90;;;;;;2046151;28;20043;-77
2023/01/31 04:32:54;;;;;;;15.70;4.00;;;3.00;99.90;;;;;;2038987;29;20031;-78
2023/01/31 04:33:56;;;;;;;11.68;3.67;;;3.00;99.90;;;;;;2037455;29;20388;-79
2023/01/31 04:34:57;;;;;;;16.52;3.88;;;3.10;99.90;;;;;;2043338;28;20031;-80
2023/01/31 04:35:58;;;;;;;12.05;3.33;;;3.10;99.90;;;;;;2044758;28;20114;-80
2023/01/31 04:36:58;;;;;;;16.20;4.03;;;3.10;99.90;;;;;;2043893;29;20838;-79
2023/01/31 04:37:59;;;;;;;15.98;3.65;;;3.10;99.90;;;;;;2035829;29;20525;-78
2023/01/31 04:39:02;;;;;;;16.13;3.78;;;3.10;99.90;;;;;;2036385;29;20845;-79
2023/01/31 04:40:03;;;;;;;13.13;3.53;;;3.10;99.90;;;;;;2046220;29;20041;-80
2023/01/31 04:41:03;;;;;;;15.02;3.95;;;3.10;99.90;;;;;;2043125;28;20032;-80
2023/01/31 04:42:04;;;;;;;14.35;3.25;;;3.10;99.90;;;;;;2047248;29;20027;-79
2023/01/31 04:43:05;;;;;;;16.13;3.65;;;3.10;99.90;;;;;;2047688;28;20070;-80
2023/01/31 04:44:05;;;;;;;14.77;3.70;;;3.10;99.90;;;;;;2044088;28;20036;-80
2023/01/31 04:45:06;;;;;;;15.48;3.70;;;3.10;99.90;;;;;;2034156;29;20554;-79
2023/01/31 04:46:07;;;;;;;17.52;3.75;;;3.10;99.90;;;;;;2038674;29;20065;-80
2023/01/31 04:47:08;;;;;;;15.43;4.00;;;3.10;99.90;;;;;;2040512;28;20562;-80
2023/01/31 04:48:08;;;;;;;17.08;4.18;;;3.10;99.90;;;;;;2033690;29;20078;-82
2023/01/31 04:49:09;;;;;;;12.80;3.53;;;3.10;99.90;;;;;;2035748;29;20043;-80
2023/01/31 04:50:10;;;;;;;22.85;3.70;;;3.20;99.90;;;;;;2043984;29;20406;-81
2023/01/31 04:51:10;;;;;;;18.35;3.60;;;3.20;99.90;;;;;;2044844;28;20027;-79
2023/01/31 04:52:11;;;;;;;17.80;3.85;;;3.30;99.90;;;;;;2047660;28;20043;-81
2023/01/31 04:53:11;;;;;;;20.20;3.60;;;3.30;99.90;;;;;;2044566;29;20465;-79
2023/01/31 04:54:12;;;;;;;20.42;3.85;;;3.30;99.90;;;;;;2040217;29;20031;-79
2023/01/31 04:55:13;;;;;;;15.90;3.83;;;3.40;99.90;;;;;;2046005;29;20027;-80
2023/01/31 04:56:13;;;;;;;15.43;3.22;;;3.40;99.90;;;;;;2043419;28;20765;-79
2023/01/31 04:57:14;;;;;;;13.40;3.33;;;3.40;99.90;;;;;;2044227;29;20586;-80
2023/01/31 04:58:14;;;;;;;15.95;3.10;;;3.40;99.90;;;;;;2043710;28;20035;-80
2023/01/31 04:59:15;;;;;;;19.25;3.55;;;3.40;99.90;;;;;;2044336;28;20054;-80
2023/01/31 05:00:16;;;;;;;15.38;3.05;;;3.50;99.90;;;;;;2042640;29;20031;-80
2023/01/31 05:01:17;;;;;;;15.57;3.22;;;3.40;99.90;;;;;;2030562;29;20082;-80
2023/01/31 05:02:17;;;;;;;16.08;3.58;;;3.50;99.90;;;;;;2032450;29;20032;-78
2023/01/31 05:03:18;;;;;;;13.07;3.40;;;3.50;99.90;;;;;;2032679;29;20348;-78
2023/01/31 05:04:20;;;;;;;17.02;3.55;;;3.50;99.90;;;;;;2038485;29;20050;-79
2023/01/31 05:05:21;;;;;;;17.20;3.47;;;3.50;99.90;;;;;;2038780;29;20034;-78
2023/01/31 05:06:22;;;;;;;23.95;3.65;;;3.60;99.90;;;;;;2035963;29;20416;-80
2023/01/31 05:07:23;;;;;;;20.52;3.72;;;3.60;99.90;;;;;;2037072;29;20039;-80
2023/01/31 05:08:23;;;;;;;13.43;3.25;;;3.60;99.90;;;;;;2036828;29;20501;-78
2023/01/31 05:09:24;;;;;;;16.55;3.22;;;3.60;99.90;;;;;;2042985;29;20463;-79
2023/01/31 05:10:24;;;;;;;14.40;3.13;;;3.60;99.90;;;;;;2048052;28;20066;-79
2023/01/31 05:11:25;;;;;;;19.85;3.60;;;3.60;99.90;;;;;;2044574;28;20046;-78
2023/01/31 05:12:27;;;;;;;14.85;3.10;;;3.70;99.90;;;;;;2035939;29;20047;-80
2023/01/31 05:13:29;;;;;;;15.23;3.40;;;3.70;99.90;;;;;;2031720;29;20671;-78
2023/01/31 05:14:29;;;;;;;13.90;3.17;;;3.70;99.90;;;;;;2039463;29;20031;-79
2023/01/31 05:15:31;;;;;;;17.83;3.08;;;3.70;99.90;;;;;;2042097;29;20031;-78
2023/01/31 05:16:32;;;;;;;12.82;3.03;;;3.70;99.90;;;;;;2042620;28;20130;-78
2023/01/31 05:17:33;;;;;;;17.27;3.22;;;3.70;99.90;;;;;;2040459;29;20608;-79
2023/01/31 05:18:34;;;;;;;18.80;3.67;;;3.70;99.90;;;;;;2040581;29;20035;-78
2023/01/31 05:19:34;;;;;;;17.33;3.40;;;3.70;99.90;;;;;;2045403;28;20027;-78
2023/01/31 05:20:39;;;;;;;18.73;3.13;;;3.70;99.90;;;;;;2046095;28;20031;-79
2023/01/31 05:21:57;;;;;;;18.13;3.60;;;3.70;99.90;;;;;;2034571;29;20095;-78
2023/01/31 05:22:58;;;;;;;17.10;3.10;;;3.70;99.90;;;;;;2039374;29;20063;-79
2023/01/31 05:23:59;;;;;;;14.45;3.05;;;3.70;99.90;;;;;;2031285;29;20084;-79
2023/01/31 05:24:59;;;;;;;17.80;3.38;;;3.70;99.90;;;;;;2026916;29;20044;-77
2023/01/31 05:26:00;;;;;;;17.00;3.38;;;3.70;99.90;;;;;;2039252;29;20039;-79
2023/01/31 05:27:01;;;;;;;16.67;3.10;;;3.70;99.90;;;;;;2043125;28;20023;-79
2023/01/31 05:28:02;;;;;;;15.80;3.42;;;3.70;99.90;;;;;;2043353;29;20709;-78
2023/01/31 05:29:06;;;;;;;20.00;3.58;;;3.70;99.90;;;;;;2043781;29;20407;-78
2023/01/31 05:30:07;;;;;;;15.40;3.28;;;3.70;99.90;;;;;;2046273;29;20032;-78
2023/01/31 05:31:09;;;;;;;14.60;3.17;;;3.70;99.90;;;;;;2040429;29;20054;-77
2023/01/31 05:32:09;;;;;;;12.50;2.80;;;3.70;99.90;;;;;;2043351;29;20038;-78
2023/01/31 05:33:10;;;;;;;14.30;3.55;;;3.80;99.90;;;;;;2042621;29;20600;-78
2023/01/31 05:34:14;;;;;;;17.73;3.20;;;3.80;99.90;;;;;;2039293;29;20403;-77
2023/01/31 05:35:15;;;;;;;16.13;3.13;;;3.80;99.90;;;;;;2043464;28;20031;-77
2023/01/31 05:36:15;;;;;;;18.60;3.38;;;3.80;99.90;;;;;;2034627;29;20418;-79
2023/01/31 05:37:16;;;;;;;14.13;3.42;;;3.80;99.90;;;;;;2034109;29;20047;-78
2023/01/31 05:38:16;;;;;;;20.15;4.05;;;3.80;99.90;;;;;;2045537;28;20434;-78
2023/01/31 05:39:18;;;;;;;15.70;3.70;;;3.80;99.90;;;;;;2027459;29;20125;-78
2023/01/31 05:40:18;;;;;;;16.02;3.22;;;3.80;99.90;;;;;;2027131;29;20028;-80
2023/01/31 05:41:19;;;;;;;17.05;3.08;;;3.80;99.90;;;;;;2043208;28;20039;-80
2023/01/31 05:42:19;;;;;;;15.80;3.38;;;3.80;99.90;;;;;;2035827;29;20067;-79
2023/01/31 05:43:20;;;;;;;15.23;3.13;;;3.80;99.90;;;;;;2033945;29;20042;-80